createdAt,value
2018-08-07T04:00:52.699Z,4.90
2018-08-07T04:01:52.569Z,4.60
2018-08-07T04:03:45.251Z,3.90
2018-08-07T04:04:45.148Z,4.60
2018-08-07T04:06:37.850Z,4.30
2018-08-07T04:07:37.726Z,4.10
2018-08-07T04:09:30.403Z,3.90
2018-08-07T04:10:30.302Z,4.10
2018-08-07T04:12:23.003Z,4.10
2018-08-07T04:13:22.888Z,4.30
2018-08-07T04:15:15.586Z,4.40
2018-08-07T04:16:15.464Z,4.30
2018-08-07T04:18:08.149Z,4.90
2018-08-07T04:19:08.050Z,4.50
2018-08-07T04:21:00.757Z,4.90
2018-08-07T04:22:00.637Z,4.50
2018-08-07T04:23:53.318Z,4.10
2018-08-07T04:24:53.212Z,4.50
2018-08-07T04:26:45.911Z,4.50
2018-08-07T04:27:45.790Z,3.90
2018-08-07T04:29:38.479Z,4.30
2018-08-07T04:30:38.373Z,3.90
2018-08-07T04:32:31.076Z,4.00
2018-08-07T04:33:30.963Z,4.40
2018-08-07T04:35:23.661Z,3.90
2018-08-07T04:36:23.537Z,4.20
2018-08-07T04:38:16.218Z,4.20
2018-08-07T04:39:16.115Z,4.30
2018-08-07T04:41:08.811Z,4.40
2018-08-07T04:42:08.692Z,4.00
2018-08-07T04:44:01.383Z,4.10
2018-08-07T04:45:01.282Z,3.90
2018-08-07T04:46:53.984Z,4.30
2018-08-07T04:47:53.863Z,3.90
2018-08-07T04:49:46.550Z,4.10
2018-08-07T04:50:46.447Z,3.90
2018-08-07T04:52:39.148Z,4.20
2018-08-07T04:53:39.028Z,4.10
2018-08-07T04:55:31.717Z,4.10
2018-08-07T04:56:31.613Z,3.70
2018-08-07T04:58:24.316Z,3.80
2018-08-07T04:59:24.197Z,3.40
2018-08-07T05:01:16.875Z,3.90
2018-08-07T05:02:16.780Z,3.70
2018-08-07T05:04:09.472Z,3.90
2018-08-07T05:05:09.354Z,4.00
2018-08-07T05:07:02.038Z,3.90
2018-08-07T05:08:01.936Z,4.00
2018-08-07T05:09:54.633Z,3.70
2018-08-07T05:10:54.515Z,3.90
2018-08-07T05:12:47.347Z,3.70
2018-08-07T05:13:47.097Z,4.10
2018-08-07T05:15:39.794Z,4.00
2018-08-07T05:16:39.674Z,3.60
2018-08-07T05:18:32.361Z,3.90
2018-08-07T05:19:32.253Z,4.10
2018-08-07T05:21:24.971Z,4.00
2018-08-07T05:22:24.899Z,3.70
2018-08-07T05:24:17.564Z,4.10
2018-08-07T05:25:17.441Z,4.20
2018-08-07T05:27:10.122Z,3.80
2018-08-07T05:28:10.021Z,4.30
2018-08-07T05:30:02.730Z,3.90
2018-08-07T05:31:02.600Z,3.60
2018-08-07T05:32:55.296Z,4.30
2018-08-07T05:33:55.194Z,4.20
2018-08-07T05:35:47.931Z,3.90
2018-08-07T05:36:47.783Z,3.70
2018-08-07T05:38:40.466Z,3.70
2018-08-07T05:39:40.364Z,3.90
2018-08-07T05:41:33.066Z,4.30
2018-08-07T05:42:33.001Z,4.00
2018-08-07T05:44:25.650Z,4.10
2018-08-07T05:45:25.535Z,4.50
2018-08-07T05:47:18.233Z,4.30
2018-08-07T05:48:18.114Z,3.90
2018-08-07T05:50:10.927Z,3.50
2018-08-07T05:51:11.015Z,3.90
2018-08-07T05:53:03.425Z,4.10
2018-08-07T05:54:03.277Z,3.60
2018-08-07T05:55:55.975Z,3.40
2018-08-07T05:56:55.875Z,3.90
2018-08-07T05:58:48.627Z,3.40
2018-08-07T05:59:48.463Z,3.70
2018-08-07T06:01:41.148Z,3.60
2018-08-07T06:02:41.046Z,3.50
2018-08-07T06:04:33.746Z,3.80
2018-08-07T06:05:33.631Z,3.80
2018-08-07T06:07:26.317Z,4.20
2018-08-07T06:08:26.221Z,4.20
2018-08-07T06:10:18.937Z,4.60
2018-08-07T06:11:18.804Z,3.90
2018-08-07T06:13:11.499Z,4.00
2018-08-07T06:14:11.402Z,3.90
2018-08-07T06:16:04.113Z,3.80
2018-08-07T06:17:04.010Z,3.80
2018-08-07T06:18:56.746Z,3.50
2018-08-07T06:19:56.617Z,3.80
2018-08-07T06:21:49.314Z,3.70
2018-08-07T06:22:49.209Z,3.60
2018-08-07T06:24:41.918Z,3.90
2018-08-07T06:25:41.856Z,4.00
2018-08-07T06:27:34.480Z,3.80
2018-08-07T06:28:34.404Z,4.50
2018-08-07T06:30:27.085Z,4.00
2018-08-07T06:31:27.017Z,4.10
2018-08-07T06:33:19.658Z,4.20
2018-08-07T06:34:19.561Z,4.40
2018-08-07T06:36:12.268Z,3.90
2018-08-07T06:37:12.151Z,3.80
2018-08-07T06:39:04.842Z,4.10
2018-08-07T06:40:04.743Z,3.60
2018-08-07T06:41:57.445Z,3.80
2018-08-07T06:42:57.390Z,3.60
2018-08-07T06:44:50.038Z,3.90
2018-08-07T06:45:49.919Z,3.90
2018-08-07T06:47:42.627Z,3.50
2018-08-07T06:48:42.516Z,3.40
2018-08-07T06:50:35.212Z,3.20
2018-08-07T06:51:35.119Z,3.10
2018-08-07T06:53:27.834Z,3.60
2018-08-07T06:54:27.724Z,3.60
2018-08-07T06:56:20.425Z,3.50
2018-08-07T06:57:20.334Z,3.50
2018-08-07T06:59:13.056Z,3.50
2018-08-07T07:00:12.946Z,3.40
2018-08-07T07:02:05.653Z,3.40
2018-08-07T07:03:05.562Z,3.30
2018-08-07T07:04:58.286Z,3.40
2018-08-07T07:05:58.181Z,3.30
2018-08-07T07:07:50.889Z,3.60
2018-08-07T07:08:50.802Z,3.40
2018-08-07T07:10:43.532Z,3.60
2018-08-07T07:11:43.422Z,3.30
2018-08-07T07:13:36.154Z,3.50
2018-08-07T07:14:36.050Z,3.30
2018-08-07T07:16:28.769Z,3.40
2018-08-07T07:17:28.682Z,3.30
2018-08-07T07:19:21.418Z,3.30
2018-08-07T07:20:21.312Z,3.70
2018-08-07T07:22:14.069Z,3.50
2018-08-07T07:23:13.944Z,3.10
2018-08-07T07:25:06.679Z,3.80
2018-08-07T07:26:06.574Z,3.50
2018-08-07T07:27:59.286Z,3.20
2018-08-07T07:28:59.200Z,3.00
2018-08-07T07:30:51.934Z,3.50
2018-08-07T07:31:51.826Z,3.30
2018-08-07T07:33:44.543Z,3.60
2018-08-07T07:34:44.459Z,3.20
2018-08-07T07:36:37.187Z,3.40
2018-08-07T07:37:37.082Z,3.80
2018-08-07T07:39:29.802Z,3.50
2018-08-07T07:40:29.720Z,3.00
2018-08-07T07:42:22.456Z,3.60
2018-08-07T07:43:22.349Z,3.50
2018-08-07T07:45:15.067Z,3.40
2018-08-07T07:46:14.979Z,3.20
2018-08-07T07:48:07.712Z,3.70
2018-08-07T07:49:07.604Z,3.30
2018-08-07T07:51:00.324Z,3.60
2018-08-07T07:52:00.243Z,3.30
2018-08-07T07:53:52.982Z,3.60
2018-08-07T07:54:52.869Z,3.50
2018-08-07T07:56:45.583Z,3.40
2018-08-07T07:57:45.499Z,3.50
2018-08-07T07:59:38.736Z,3.40
2018-08-07T08:00:38.631Z,3.70
2018-08-07T08:02:31.341Z,3.40
2018-08-07T08:03:31.265Z,3.90
2018-08-07T08:05:24.098Z,3.70
2018-08-07T08:06:23.895Z,3.50
2018-08-07T08:08:16.627Z,3.40
2018-08-07T08:09:16.530Z,3.80
2018-08-07T08:11:09.288Z,4.00
2018-08-07T08:12:09.164Z,4.00
2018-08-07T08:14:01.901Z,3.50
2018-08-07T08:15:01.796Z,3.90
2018-08-07T08:16:54.507Z,3.90
2018-08-07T08:17:54.422Z,3.30
2018-08-07T08:19:47.652Z,3.60
2018-08-07T08:20:47.544Z,3.30
2018-08-07T08:22:40.269Z,3.80
2018-08-07T08:23:40.182Z,3.40
2018-08-07T08:25:32.917Z,3.80
2018-08-07T08:26:32.855Z,3.50
2018-08-07T08:28:25.553Z,3.50
2018-08-07T08:29:25.744Z,3.30
2018-08-07T08:31:18.687Z,3.70
2018-08-07T08:32:18.588Z,3.40
2018-08-07T08:34:11.797Z,3.50
2018-08-07T08:35:11.711Z,3.50
2018-08-07T08:37:04.439Z,3.60
2018-08-07T08:38:04.334Z,3.80
2018-08-07T08:39:57.049Z,3.70
2018-08-07T08:40:56.977Z,3.70
2018-08-07T08:42:50.184Z,3.80
2018-08-07T08:43:50.082Z,3.30
2018-08-07T08:45:42.791Z,3.60
2018-08-07T08:46:42.698Z,3.50
2018-08-07T08:48:36.966Z,3.50
2018-08-07T08:49:36.820Z,3.50
2018-08-07T08:51:29.527Z,3.20
2018-08-07T08:52:29.435Z,3.60
2018-08-07T08:54:22.168Z,3.60
2018-08-07T08:55:22.055Z,3.30
2018-08-07T08:57:14.760Z,3.70
2018-08-07T08:58:14.667Z,3.70
2018-08-07T09:00:07.506Z,3.60
2018-08-07T09:01:07.399Z,3.60
2018-08-07T09:03:00.103Z,3.20
2018-08-07T09:04:00.008Z,3.40
2018-08-07T09:05:52.734Z,3.90
2018-08-07T09:06:52.624Z,3.80
2018-08-07T09:08:45.360Z,3.40
2018-08-07T09:09:45.259Z,3.30
2018-08-07T09:11:37.948Z,3.50
2018-08-07T09:12:37.847Z,3.50
2018-08-07T09:14:30.570Z,3.30
2018-08-07T09:15:30.464Z,3.50
2018-08-07T09:17:23.160Z,3.20
2018-08-07T09:18:23.070Z,3.40
2018-08-07T09:20:15.810Z,3.30
2018-08-07T09:21:15.677Z,3.40
2018-08-07T09:23:08.391Z,3.40
2018-08-07T09:24:08.290Z,3.30
2018-08-07T09:26:02.019Z,3.20
2018-08-07T09:27:01.886Z,3.40
2018-08-07T09:28:54.587Z,3.50
2018-08-07T09:29:54.490Z,3.20
2018-08-07T09:31:47.248Z,3.70
2018-08-07T09:32:47.148Z,3.10
2018-08-07T09:34:39.802Z,3.10
2018-08-07T09:35:39.718Z,3.00
2018-08-07T09:37:32.423Z,3.20
2018-08-07T09:38:32.310Z,3.40
2018-08-07T09:40:25.042Z,3.30
2018-08-07T09:41:24.919Z,3.40
2018-08-07T09:43:17.628Z,3.30
2018-08-07T09:44:17.536Z,3.20
2018-08-07T09:46:10.247Z,3.20
2018-08-07T09:47:10.140Z,3.10
2018-08-07T09:49:02.837Z,3.20
2018-08-07T09:50:02.744Z,3.20
2018-08-07T09:51:55.463Z,3.40
2018-08-07T09:52:55.355Z,3.50
2018-08-07T09:54:48.071Z,3.10
2018-08-07T09:55:47.958Z,3.20
2018-08-07T09:57:40.663Z,3.50
2018-08-07T09:58:40.634Z,3.20
2018-08-07T10:00:33.283Z,3.20
2018-08-07T10:01:33.175Z,3.50
2018-08-07T10:03:25.872Z,3.30
2018-08-07T10:04:25.781Z,3.40
2018-08-07T10:06:18.504Z,3.30
2018-08-07T10:07:18.391Z,3.10
2018-08-07T10:09:11.087Z,3.20
2018-08-07T10:10:10.989Z,3.40
2018-08-07T10:12:03.752Z,3.80
2018-08-07T10:13:03.602Z,3.60
2018-08-07T10:14:56.299Z,3.50
2018-08-07T10:15:56.203Z,3.40
2018-08-07T10:17:48.966Z,3.60
2018-08-07T10:18:48.810Z,3.50
2018-08-07T10:20:41.534Z,3.80
2018-08-07T10:21:41.426Z,3.50
2018-08-07T10:23:34.130Z,3.40
2018-08-07T10:24:34.038Z,3.70
2018-08-07T10:26:26.757Z,3.80
2018-08-07T10:27:26.638Z,3.60
2018-08-07T10:29:19.336Z,4.00
2018-08-07T10:30:19.246Z,3.80
2018-08-07T10:32:11.961Z,4.00
2018-08-07T10:33:11.848Z,3.50
2018-08-07T10:35:04.586Z,3.30
2018-08-07T10:36:04.456Z,3.20
2018-08-07T10:37:57.174Z,3.50
2018-08-07T10:38:57.054Z,3.30
2018-08-07T10:40:49.944Z,3.60
2018-08-07T10:41:49.681Z,3.40
2018-08-07T10:43:42.610Z,3.70
2018-08-07T10:44:42.274Z,3.40
2018-08-07T10:46:34.963Z,3.20
2018-08-07T10:47:34.913Z,3.50
2018-08-07T10:49:27.587Z,3.20
2018-08-07T10:50:27.476Z,3.70
2018-08-07T10:52:20.258Z,3.30
2018-08-07T10:53:20.087Z,3.40
2018-08-07T10:55:12.807Z,3.30
2018-08-07T10:56:12.694Z,3.20
2018-08-07T10:58:05.411Z,3.50
2018-08-07T10:59:05.295Z,3.50
2018-08-07T11:00:58.001Z,3.30
2018-08-07T11:01:57.905Z,3.30
2018-08-07T11:03:50.624Z,3.60
2018-08-07T11:04:50.521Z,3.40
2018-08-07T11:06:43.211Z,3.40
2018-08-07T11:07:43.116Z,3.70
2018-08-07T11:09:35.830Z,3.40
2018-08-07T11:10:35.714Z,3.70
2018-08-07T11:12:28.418Z,3.80
2018-08-07T11:13:28.316Z,3.60
2018-08-07T11:15:21.035Z,3.50
2018-08-07T11:16:20.929Z,3.90
2018-08-07T11:18:13.625Z,3.70
2018-08-07T11:19:13.537Z,3.40
2018-08-07T11:21:06.251Z,3.50
2018-08-07T11:22:06.138Z,3.50
2018-08-07T11:23:58.833Z,3.60
2018-08-07T11:24:58.744Z,3.40
2018-08-07T11:26:51.454Z,3.20
2018-08-07T11:27:51.351Z,3.30
2018-08-07T11:29:44.067Z,3.80
2018-08-07T11:30:43.955Z,3.70
2018-08-07T11:32:36.653Z,3.60
2018-08-07T11:33:36.557Z,3.80
2018-08-07T11:35:29.274Z,3.60
2018-08-07T11:36:29.167Z,3.80
2018-08-07T11:38:21.861Z,3.60
2018-08-07T11:39:21.767Z,3.70
2018-08-07T11:41:14.495Z,3.80
2018-08-07T11:42:14.377Z,3.80
2018-08-07T11:44:07.081Z,3.20
2018-08-07T11:45:06.984Z,3.20
2018-08-07T11:46:59.705Z,3.60
2018-08-07T11:47:59.625Z,3.70
2018-08-07T11:49:52.290Z,3.70
2018-08-07T11:50:52.194Z,3.90
2018-08-07T11:52:44.904Z,3.90
2018-08-07T11:53:44.796Z,3.90
2018-08-07T11:55:37.516Z,3.80
2018-08-07T11:56:37.397Z,3.40
2018-08-07T11:58:31.097Z,3.70
2018-08-07T11:59:31.005Z,3.90
2018-08-07T12:01:23.725Z,3.80
2018-08-07T12:02:23.649Z,3.50
2018-08-07T12:04:16.310Z,3.70
2018-08-07T12:05:16.215Z,3.30
2018-08-07T12:07:08.929Z,3.80
2018-08-07T12:08:08.920Z,4.00
2018-08-07T12:10:01.522Z,4.30
2018-08-07T12:11:01.429Z,3.90
2018-08-07T12:12:54.145Z,3.90
2018-08-07T12:13:54.029Z,4.40
2018-08-07T12:15:46.734Z,3.60
2018-08-07T12:16:46.636Z,4.00
2018-08-07T12:18:39.361Z,3.80
2018-08-07T12:19:39.244Z,4.00
2018-08-07T12:21:31.951Z,4.10
2018-08-07T12:22:31.854Z,3.70
2018-08-07T12:24:24.571Z,3.70
2018-08-07T12:25:24.459Z,3.60
2018-08-07T12:27:17.171Z,3.80
2018-08-07T12:28:17.074Z,3.80
2018-08-07T12:30:09.839Z,3.60
2018-08-07T12:31:09.695Z,3.70
2018-08-07T12:33:02.435Z,3.90
2018-08-07T12:34:02.305Z,3.60
2018-08-07T12:35:55.010Z,3.70
2018-08-07T12:36:54.915Z,4.00
2018-08-07T12:38:47.637Z,3.90
2018-08-07T12:39:47.523Z,4.00
2018-08-07T12:41:40.225Z,3.70
2018-08-07T12:42:40.128Z,3.70
2018-08-07T12:44:32.852Z,3.80
2018-08-07T12:45:32.754Z,3.90
2018-08-07T12:47:25.441Z,3.90
2018-08-07T12:48:25.347Z,3.60
2018-08-07T12:50:18.065Z,3.80
2018-08-07T12:51:17.949Z,3.80
2018-08-07T12:53:10.680Z,3.70
2018-08-07T12:54:10.562Z,3.70
2018-08-07T12:56:03.280Z,3.80
2018-08-07T12:57:03.163Z,3.60
2018-08-07T12:58:55.865Z,4.10
2018-08-07T12:59:55.770Z,4.10
2018-08-07T13:01:48.486Z,4.00
2018-08-07T13:02:48.382Z,3.60
2018-08-07T13:04:41.087Z,3.80
2018-08-07T13:05:40.985Z,4.00
2018-08-07T13:07:33.702Z,3.70
2018-08-07T13:08:33.591Z,3.70
2018-08-07T13:10:26.311Z,3.80
2018-08-07T13:11:26.208Z,3.90
2018-08-07T13:13:18.899Z,4.00
2018-08-07T13:14:18.804Z,3.90
2018-08-07T13:16:11.522Z,4.10
2018-08-07T13:17:11.460Z,3.80
2018-08-07T13:19:04.114Z,3.60
2018-08-07T13:20:04.019Z,3.80
2018-08-07T13:21:56.745Z,3.30
2018-08-07T13:22:56.641Z,4.00
2018-08-07T13:24:49.335Z,3.70
2018-08-07T13:25:49.269Z,4.00
2018-08-07T13:27:41.957Z,4.40
2018-08-07T13:28:41.855Z,3.70
2018-08-07T13:30:34.548Z,4.00
2018-08-07T13:31:34.491Z,3.70
2018-08-07T13:33:27.169Z,3.80
2018-08-07T13:34:27.062Z,4.20
2018-08-07T13:36:19.757Z,4.00
2018-08-07T13:37:19.689Z,3.90
2018-08-07T13:39:12.384Z,4.10
2018-08-07T13:40:12.271Z,4.00
2018-08-07T13:42:04.971Z,4.00
2018-08-07T13:43:04.879Z,4.10
2018-08-07T13:44:57.604Z,3.80
2018-08-07T13:45:57.487Z,4.10
2018-08-07T13:47:50.214Z,4.00
2018-08-07T13:48:50.099Z,4.40
2018-08-07T13:50:42.801Z,3.90
2018-08-07T13:51:42.707Z,4.10
2018-08-07T13:53:35.429Z,3.80
2018-08-07T13:54:35.319Z,4.20
2018-08-07T13:56:28.016Z,4.20
2018-08-07T13:57:27.921Z,4.00
2018-08-07T13:59:20.668Z,4.40
2018-08-07T14:00:20.534Z,4.70
2018-08-07T14:02:13.240Z,4.10
2018-08-07T14:03:13.147Z,4.00
2018-08-07T14:05:05.863Z,3.80
2018-08-07T14:06:05.751Z,4.10
2018-08-07T14:07:58.449Z,3.90
2018-08-07T14:08:58.362Z,4.00
2018-08-07T14:10:51.073Z,3.90
2018-08-07T14:11:50.965Z,4.00
2018-08-07T14:13:44.161Z,4.00
2018-08-07T14:14:44.074Z,3.70
2018-08-07T14:16:37.597Z,3.90
2018-08-07T14:17:38.414Z,3.90
2018-08-07T14:19:30.164Z,3.60
2018-08-07T14:20:30.076Z,4.10
2018-08-07T14:22:22.828Z,3.90
2018-08-07T14:23:22.705Z,4.40
2018-08-07T14:25:15.399Z,3.80
2018-08-07T14:26:15.295Z,3.70
2018-08-07T14:28:08.020Z,3.80
2018-08-07T14:29:07.906Z,4.00
2018-08-07T14:31:00.622Z,3.80
2018-08-07T14:32:00.516Z,3.70
2018-08-07T14:33:53.250Z,4.20
2018-08-07T14:34:53.160Z,4.50
2018-08-07T14:36:45.919Z,3.90
2018-08-07T14:37:45.761Z,3.90
2018-08-07T14:39:38.467Z,4.00
2018-08-07T14:40:38.372Z,3.80
2018-08-07T14:42:31.102Z,3.60
2018-08-07T14:43:30.987Z,3.20
2018-08-07T14:45:23.691Z,3.60
2018-08-07T14:46:23.593Z,3.60
2018-08-07T14:48:16.311Z,3.70
2018-08-07T14:49:16.199Z,3.40
2018-08-07T14:51:08.923Z,3.30
2018-08-07T14:52:08.813Z,3.50
2018-08-07T14:54:01.528Z,3.40
2018-08-07T14:55:01.423Z,4.00
2018-08-07T14:56:54.151Z,3.40
2018-08-07T14:57:54.138Z,3.60
2018-08-07T14:59:47.237Z,4.10
2018-08-07T15:00:47.140Z,3.80
2018-08-07T15:02:39.863Z,3.90
2018-08-07T15:03:39.750Z,3.70
2018-08-07T15:05:32.461Z,3.50
2018-08-07T15:06:32.356Z,3.40
2018-08-07T15:08:25.082Z,3.40
2018-08-07T15:09:24.966Z,3.50
2018-08-07T15:11:17.668Z,3.50
2018-08-07T15:12:17.577Z,3.50
2018-08-07T15:14:10.300Z,3.60
2018-08-07T15:15:10.178Z,3.40
2018-08-07T15:17:02.886Z,3.80
2018-08-07T15:18:02.797Z,3.60
2018-08-07T15:19:55.516Z,3.30
2018-08-07T15:20:55.408Z,3.20
2018-08-07T15:22:48.107Z,3.60
2018-08-07T15:23:48.013Z,3.20
2018-08-07T15:25:40.737Z,3.50
2018-08-07T15:26:40.627Z,3.00
2018-08-07T15:28:33.833Z,3.10
2018-08-07T15:29:33.743Z,3.20
2018-08-07T15:31:26.421Z,3.10
2018-08-07T15:32:26.332Z,2.90
2018-08-07T15:34:19.051Z,3.60
2018-08-07T15:35:18.984Z,3.10
2018-08-07T15:37:12.141Z,3.00
2018-08-07T15:38:12.044Z,2.90
2018-08-07T15:40:04.768Z,3.10
2018-08-07T15:41:04.655Z,2.90
2018-08-07T15:42:57.359Z,2.90
2018-08-07T15:43:57.263Z,3.10
2018-08-07T15:45:49.991Z,3.10
2018-08-07T15:46:49.954Z,3.30
2018-08-07T15:48:42.579Z,3.10
2018-08-07T15:49:42.483Z,2.90
2018-08-07T15:51:35.204Z,2.80
2018-08-07T15:52:35.112Z,2.90
2018-08-07T15:54:27.797Z,2.90
2018-08-07T15:55:27.721Z,3.00
2018-08-07T15:57:20.421Z,2.70
2018-08-07T15:58:20.312Z,2.80
2018-08-07T16:00:13.013Z,3.00
2018-08-07T16:01:12.992Z,3.70
2018-08-07T16:03:05.636Z,2.60
2018-08-07T16:04:05.523Z,3.20
2018-08-07T16:05:58.243Z,3.10
2018-08-07T16:06:58.130Z,3.00
2018-08-07T16:08:50.831Z,2.70
2018-08-07T16:09:50.730Z,3.00
2018-08-07T16:11:43.452Z,3.00
2018-08-07T16:12:43.338Z,2.90
2018-08-07T16:14:36.047Z,2.70
2018-08-07T16:15:35.954Z,2.60
2018-08-07T16:17:28.669Z,3.10
2018-08-07T16:18:28.552Z,2.90
2018-08-07T16:20:21.254Z,2.90
2018-08-07T16:21:21.160Z,3.00
2018-08-07T16:23:13.874Z,2.80
2018-08-07T16:24:13.765Z,3.00
2018-08-07T16:26:06.492Z,2.90
2018-08-07T16:27:06.372Z,2.90
2018-08-07T16:28:59.075Z,3.30
2018-08-07T16:29:59.025Z,3.20
2018-08-07T16:31:51.711Z,2.70
2018-08-07T16:32:51.583Z,3.10
2018-08-07T16:34:44.284Z,3.20
2018-08-07T16:35:44.195Z,3.20
2018-08-07T16:37:36.908Z,3.20
2018-08-07T16:38:36.796Z,3.00
2018-08-07T16:40:29.495Z,3.20
2018-08-07T16:41:29.421Z,3.30
2018-08-07T16:43:22.126Z,3.20
2018-08-07T16:44:22.009Z,2.80
2018-08-07T16:46:15.199Z,3.20
2018-08-07T16:47:15.108Z,3.20
2018-08-07T16:49:07.827Z,2.90
2018-08-07T16:50:07.710Z,3.10
2018-08-07T16:52:00.405Z,3.10
2018-08-07T16:53:00.318Z,3.10
2018-08-07T16:54:53.031Z,3.10
2018-08-07T16:55:52.932Z,3.10
2018-08-07T16:57:45.622Z,3.30
2018-08-07T16:58:45.537Z,3.00
2018-08-07T17:00:38.257Z,3.30
2018-08-07T17:01:38.148Z,3.10
2018-08-07T17:03:30.836Z,3.50
2018-08-07T17:04:30.748Z,3.30
2018-08-07T17:06:23.465Z,3.40
2018-08-07T17:07:23.344Z,3.60
2018-08-07T17:09:16.074Z,3.00
2018-08-07T17:10:15.969Z,2.70
2018-08-07T17:12:08.666Z,3.60
2018-08-07T17:13:08.568Z,3.60
2018-08-07T17:15:01.288Z,3.20
2018-08-07T17:16:01.171Z,3.40
2018-08-07T17:17:53.868Z,3.20
2018-08-07T17:18:53.777Z,3.20
2018-08-07T17:20:46.986Z,3.70
2018-08-07T17:21:46.877Z,3.40
2018-08-07T17:23:39.573Z,3.30
2018-08-07T17:24:39.475Z,3.50
2018-08-07T17:26:32.196Z,3.50
2018-08-07T17:27:32.087Z,3.30
2018-08-07T17:29:24.795Z,3.20
2018-08-07T17:30:24.692Z,3.40
2018-08-07T17:32:17.412Z,3.40
2018-08-07T17:33:17.325Z,3.40
2018-08-07T17:35:09.998Z,3.30
2018-08-07T17:36:09.902Z,3.50
2018-08-07T17:38:02.616Z,3.70
2018-08-07T17:39:02.507Z,3.80
2018-08-07T17:40:55.203Z,3.50
2018-08-07T17:41:55.112Z,4.30
2018-08-07T17:43:47.835Z,3.60
2018-08-07T17:44:47.719Z,3.50
2018-08-07T17:46:40.438Z,3.60
2018-08-07T17:47:40.326Z,3.40
2018-08-07T17:49:33.564Z,3.90
2018-08-07T17:50:33.419Z,3.40
2018-08-07T17:52:26.628Z,3.80
2018-08-07T17:53:26.518Z,3.90
2018-08-07T17:55:19.219Z,4.00
2018-08-07T17:56:19.125Z,4.20
2018-08-07T17:58:12.349Z,3.90
2018-08-07T17:59:12.261Z,4.20
2018-08-07T18:01:05.479Z,3.50
2018-08-07T18:02:05.380Z,4.00
2018-08-07T18:03:58.102Z,4.10
2018-08-07T18:04:57.986Z,3.90
2018-08-07T18:06:50.714Z,4.10
2018-08-07T18:07:50.592Z,3.50
2018-08-07T18:09:43.313Z,4.10
2018-08-07T18:10:43.193Z,3.90
2018-08-07T18:12:35.934Z,3.90
2018-08-07T18:13:35.800Z,4.40
2018-08-07T18:15:28.512Z,4.00
2018-08-07T18:16:28.405Z,3.80
2018-08-07T18:18:21.121Z,4.10
2018-08-07T18:19:21.009Z,4.00
2018-08-07T18:21:13.701Z,4.20
2018-08-07T18:22:13.611Z,3.70
2018-08-07T18:24:06.325Z,4.40
2018-08-07T18:25:06.212Z,3.80
2018-08-07T18:26:58.953Z,3.80
2018-08-07T18:27:58.816Z,4.10
2018-08-07T18:29:51.527Z,3.90
2018-08-07T18:30:51.411Z,3.60
2018-08-07T18:32:44.166Z,4.10
2018-08-07T18:33:44.032Z,4.10
2018-08-07T18:35:36.747Z,4.00
2018-08-07T18:36:36.630Z,3.90
2018-08-07T18:38:29.336Z,4.20
2018-08-07T18:39:29.234Z,4.10
2018-08-07T18:41:21.964Z,4.30
2018-08-07T18:42:21.866Z,4.00
2018-08-07T18:44:14.529Z,4.30
2018-08-07T18:45:14.438Z,4.20
2018-08-07T18:47:07.150Z,4.00
2018-08-07T18:48:07.039Z,4.60
2018-08-07T18:49:59.736Z,3.90
2018-08-07T18:50:59.652Z,4.30
2018-08-07T18:52:52.357Z,4.60
2018-08-07T18:53:52.241Z,4.40
2018-08-07T18:55:44.935Z,4.40
2018-08-07T18:56:44.843Z,4.50
2018-08-07T18:58:37.558Z,4.20
2018-08-07T18:59:37.442Z,4.80
2018-08-07T19:01:30.656Z,4.60
2018-08-07T19:02:30.535Z,4.70
2018-08-07T19:04:23.228Z,5.20
2018-08-07T19:05:23.142Z,5.30
2018-08-07T19:07:15.844Z,6.20
2018-08-07T19:08:15.733Z,6.60
2018-08-07T19:10:08.426Z,6.90
2018-08-07T19:11:08.332Z,6.20
2018-08-07T19:13:01.039Z,7.70
2018-08-07T19:14:00.921Z,7.10
2018-08-07T19:15:53.623Z,6.60
2018-08-07T19:16:53.535Z,5.60
2018-08-07T19:18:46.244Z,6.80
2018-08-07T19:19:46.126Z,7.60
2018-08-07T19:21:38.824Z,7.10
2018-08-07T19:22:38.727Z,6.60
2018-08-07T19:24:31.439Z,6.60
2018-08-07T19:25:31.332Z,6.50
2018-08-07T19:27:24.020Z,6.40
2018-08-07T19:28:23.926Z,6.60
2018-08-07T19:30:16.636Z,7.10
2018-08-07T19:31:16.528Z,6.60
2018-08-07T19:33:09.259Z,6.00
2018-08-07T19:34:09.127Z,5.60
2018-08-07T19:36:01.824Z,5.30
2018-08-07T19:37:01.729Z,5.10
2018-08-07T19:38:54.442Z,5.60
2018-08-07T19:39:54.324Z,5.50
2018-08-07T19:41:47.513Z,5.30
2018-08-07T19:42:47.415Z,5.40
2018-08-07T19:44:40.140Z,5.60
2018-08-07T19:45:40.016Z,5.60
2018-08-07T19:47:32.716Z,6.30
2018-08-07T19:48:32.614Z,5.20
2018-08-07T19:50:25.321Z,5.60
2018-08-07T19:51:25.205Z,5.70
2018-08-07T19:53:18.414Z,5.90
2018-08-07T19:54:18.297Z,6.30
2018-08-07T19:56:10.986Z,5.80
2018-08-07T19:57:10.897Z,6.20
2018-08-07T19:59:03.610Z,6.70
2018-08-07T20:00:03.489Z,6.60
2018-08-07T20:01:56.177Z,6.20
2018-08-07T20:02:56.085Z,6.70
2018-08-07T20:04:48.792Z,6.40
2018-08-07T20:05:48.678Z,5.70
2018-08-07T20:07:41.366Z,5.40
2018-08-07T20:08:41.271Z,5.30
2018-08-07T20:10:33.999Z,5.30
2018-08-07T20:11:33.864Z,5.10
2018-08-07T20:13:26.558Z,5.10
2018-08-07T20:14:26.464Z,4.60
2018-08-07T20:16:19.174Z,5.10
2018-08-07T20:17:19.071Z,4.90
2018-08-07T20:19:11.772Z,5.00
2018-08-07T20:20:11.655Z,5.10
2018-08-07T20:22:04.354Z,4.50
2018-08-07T20:23:04.255Z,4.30
2018-08-07T20:24:57.505Z,4.60
2018-08-07T20:25:57.383Z,5.00
2018-08-07T20:27:50.068Z,4.90
2018-08-07T20:28:49.976Z,5.10
2018-08-07T20:30:42.712Z,4.90
2018-08-07T20:31:42.567Z,4.70
2018-08-07T20:33:35.255Z,4.70
2018-08-07T20:34:35.162Z,4.90
2018-08-07T20:36:27.864Z,4.30
2018-08-07T20:37:27.751Z,4.40
2018-08-07T20:39:20.446Z,4.30
2018-08-07T20:40:20.343Z,4.10
2018-08-07T20:42:13.543Z,4.20
2018-08-07T20:43:13.440Z,4.10
2018-08-07T20:45:06.125Z,4.80
2018-08-07T20:46:06.024Z,4.50
2018-08-07T20:47:58.735Z,4.50
2018-08-07T20:48:58.617Z,4.10
2018-08-07T20:50:51.323Z,3.90
2018-08-07T20:51:51.213Z,4.60
2018-08-07T20:53:43.901Z,4.30
2018-08-07T20:54:43.809Z,4.30
2018-08-07T20:56:36.512Z,4.30
2018-08-07T20:57:36.403Z,4.40
2018-08-07T20:59:29.096Z,4.40
2018-08-07T21:00:28.996Z,4.40
2018-08-07T21:02:21.702Z,4.30
2018-08-07T21:03:21.594Z,4.50
2018-08-07T21:05:14.287Z,4.50
2018-08-07T21:06:14.192Z,4.40
2018-08-07T21:08:06.909Z,4.50
2018-08-07T21:09:06.778Z,4.80
2018-08-07T21:10:59.488Z,4.00
2018-08-07T21:11:59.369Z,4.30
2018-08-07T21:13:52.552Z,4.20
2018-08-07T21:14:52.454Z,4.30
2018-08-07T21:16:45.169Z,4.20
2018-08-07T21:17:45.062Z,4.50
2018-08-07T21:19:37.743Z,4.80
2018-08-07T21:20:37.652Z,4.40
2018-08-07T21:22:30.407Z,4.20
2018-08-07T21:23:30.239Z,4.10
2018-08-07T21:25:22.929Z,4.40
2018-08-07T21:26:22.828Z,4.10
2018-08-07T21:28:15.544Z,4.20
2018-08-07T21:29:15.421Z,4.30
2018-08-07T21:31:08.115Z,4.20
2018-08-07T21:32:08.021Z,4.10
2018-08-07T21:34:00.725Z,4.10
2018-08-07T21:35:00.661Z,4.30
2018-08-07T21:36:53.304Z,4.60
2018-08-07T21:37:53.204Z,4.80
2018-08-07T21:39:45.918Z,4.20
2018-08-07T21:40:45.799Z,4.60
2018-08-07T21:42:38.485Z,4.90
2018-08-07T21:43:38.387Z,4.60
2018-08-07T21:45:31.099Z,4.50
2018-08-07T21:46:30.983Z,4.30
2018-08-07T21:48:23.677Z,5.20
2018-08-07T21:49:23.578Z,4.90
2018-08-07T21:51:16.290Z,4.60
2018-08-07T21:52:16.169Z,4.70
2018-08-07T21:54:09.361Z,4.90
2018-08-07T21:55:09.264Z,4.90
2018-08-07T21:57:01.976Z,5.10
2018-08-07T21:58:01.856Z,5.00
2018-08-07T21:59:54.549Z,4.70
